createdAt,value
2017-12-16T00:01:56.344Z,11.80
2017-12-16T00:04:23.828Z,15.57
2017-12-16T00:06:51.279Z,12.33
2017-12-16T00:09:19.646Z,19.20
2017-12-16T00:11:47.093Z,9.97
2017-12-16T00:14:14.547Z,8.17
2017-12-16T00:16:42.333Z,9.00
2017-12-16T00:19:09.781Z,9.20
2017-12-16T00:21:37.234Z,10.33
2017-12-16T00:24:05.033Z,12.50
2017-12-16T00:26:32.487Z,9.27
2017-12-16T00:28:59.926Z,9.80
2017-12-16T00:31:27.738Z,11.43
2017-12-16T00:33:55.193Z,16.33
2017-12-16T00:36:22.641Z,8.77
2017-12-16T00:38:50.397Z,8.93
2017-12-16T00:41:17.845Z,11.47
2017-12-16T00:43:45.299Z,9.90
2017-12-16T00:46:13.086Z,11.37
2017-12-16T00:48:40.934Z,10.90
2017-12-16T00:51:08.381Z,9.70
2017-12-16T00:53:36.389Z,12.00
2017-12-16T00:56:03.836Z,8.53
2017-12-16T00:58:31.283Z,12.47
2017-12-16T01:00:59.699Z,13.00
2017-12-16T01:03:27.165Z,13.93
2017-12-16T01:05:54.629Z,18.77
2017-12-16T01:08:22.374Z,25.03
2017-12-16T01:10:49.825Z,16.20
2017-12-16T01:13:17.302Z,19.33
2017-12-16T01:15:45.058Z,17.23
2017-12-16T01:18:12.519Z,15.13
2017-12-16T01:20:39.976Z,13.60
2017-12-16T01:23:08.055Z,16.20
2017-12-16T01:25:35.504Z,16.60
2017-12-16T01:28:04.675Z,13.90
2017-12-16T01:30:32.590Z,13.93
2017-12-16T01:33:00.047Z,12.60
2017-12-16T01:35:39.498Z,13.63
2017-12-16T01:38:18.685Z,12.93
2017-12-16T01:40:46.463Z,14.83
2017-12-16T01:43:13.922Z,17.13
2017-12-16T01:45:41.380Z,15.50
2017-12-16T01:48:09.090Z,22.53
2017-12-16T01:50:37.529Z,13.27
2017-12-16T01:53:04.985Z,14.60
2017-12-16T01:55:32.945Z,15.73
2017-12-16T01:58:00.396Z,18.17
2017-12-16T02:00:27.840Z,13.47
2017-12-16T02:02:55.683Z,14.67
2017-12-16T02:05:23.138Z,17.87
2017-12-16T02:07:50.595Z,18.37
2017-12-16T02:10:18.669Z,15.67
2017-12-16T02:12:46.121Z,20.93
2017-12-16T02:15:13.569Z,30.23
2017-12-16T02:17:41.250Z,14.97
2017-12-16T02:20:08.713Z,18.47
2017-12-16T02:22:36.170Z,15.97
2017-12-16T02:25:03.897Z,16.83
2017-12-16T02:27:31.349Z,25.03
2017-12-16T02:29:58.813Z,15.70
2017-12-16T02:32:26.734Z,20.03
2017-12-16T02:34:54.188Z,21.53
2017-12-16T02:37:21.663Z,16.67
2017-12-16T02:39:49.734Z,20.00
2017-12-16T02:42:17.197Z,19.43
2017-12-16T02:44:44.656Z,19.97
2017-12-16T02:47:12.345Z,20.80
2017-12-16T02:49:39.814Z,22.90
2017-12-16T02:52:08.651Z,21.60
2017-12-16T02:54:36.325Z,18.73
2017-12-16T02:57:03.796Z,18.73
2017-12-16T02:59:31.287Z,17.03
2017-12-16T03:01:59.008Z,20.17
2017-12-16T03:04:26.482Z,15.77
2017-12-16T03:06:53.946Z,18.43
2017-12-16T03:09:21.708Z,24.63
2017-12-16T03:11:49.157Z,13.70
2017-12-16T03:14:16.616Z,15.90
2017-12-16T03:16:44.395Z,22.77
2017-12-16T03:19:11.861Z,25.17
2017-12-16T03:21:39.315Z,23.77
2017-12-16T03:24:07.081Z,23.20
2017-12-16T03:26:34.534Z,18.03
2017-12-16T03:29:01.979Z,19.23
2017-12-16T03:31:29.777Z,22.43
2017-12-16T03:33:57.238Z,18.67
2017-12-16T03:36:24.694Z,23.90
2017-12-16T03:38:52.761Z,22.23
2017-12-16T03:41:20.228Z,18.03
2017-12-16T03:43:47.682Z,19.17
2017-12-16T03:46:15.442Z,29.63
2017-12-16T03:48:42.902Z,19.33
2017-12-16T03:51:10.354Z,28.40
2017-12-16T03:53:39.052Z,20.37
2017-12-16T03:56:06.502Z,26.50
2017-12-16T03:58:33.960Z,16.97
2017-12-16T04:01:02.057Z,16.47
2017-12-16T04:03:29.520Z,15.90
2017-12-16T04:05:57.054Z,18.60
2017-12-16T04:08:24.891Z,15.87
2017-12-16T04:10:52.362Z,18.50
2017-12-16T04:13:19.830Z,19.80
2017-12-16T04:15:47.729Z,17.30
2017-12-16T04:18:15.188Z,20.10
2017-12-16T04:20:42.645Z,19.90
2017-12-16T04:23:10.410Z,19.33
2017-12-16T04:25:37.874Z,21.43
2017-12-16T04:28:05.337Z,17.47
2017-12-16T04:30:33.149Z,22.37
2017-12-16T04:33:00.609Z,23.10
2017-12-16T04:35:28.073Z,18.13
2017-12-16T04:37:55.789Z,31.20
2017-12-16T04:40:23.257Z,30.97
2017-12-16T04:42:50.727Z,26.83
2017-12-16T04:45:18.786Z,25.10
2017-12-16T04:47:46.242Z,27.17
2017-12-16T04:50:13.708Z,21.07
2017-12-16T04:52:41.476Z,19.60
2017-12-16T04:55:09.625Z,19.50
2017-12-16T04:57:37.089Z,25.40
2017-12-16T05:00:05.082Z,21.17
2017-12-16T05:02:32.545Z,25.47
2017-12-16T05:05:00.012Z,19.57
2017-12-16T05:07:27.924Z,19.93
2017-12-16T05:09:55.389Z,18.77
2017-12-16T05:12:22.850Z,26.90
2017-12-16T05:14:50.457Z,29.63
2017-12-16T05:17:17.918Z,29.13
2017-12-16T05:19:45.381Z,25.33
2017-12-16T05:22:13.440Z,24.23
2017-12-16T05:24:40.894Z,26.13
2017-12-16T05:27:08.353Z,23.07
2017-12-16T05:29:36.156Z,19.03
2017-12-16T05:32:03.617Z,23.90
2017-12-16T05:34:31.082Z,27.10
2017-12-16T05:36:59.436Z,29.23
2017-12-16T05:39:26.902Z,18.23
2017-12-16T05:41:54.465Z,18.63
2017-12-16T05:44:22.429Z,27.23
2017-12-16T05:46:49.889Z,16.23
2017-12-16T05:49:17.340Z,31.10
2017-12-16T05:51:45.122Z,30.23
2017-12-16T05:54:12.582Z,17.80
2017-12-16T05:56:41.010Z,32.93
2017-12-16T05:59:08.734Z,32.13
2017-12-16T06:01:36.193Z,29.00
2017-12-16T06:04:03.650Z,25.17
2017-12-16T06:06:31.410Z,25.80
2017-12-16T06:08:58.873Z,14.47
2017-12-16T06:11:26.325Z,22.67
2017-12-16T06:13:55.322Z,26.40
2017-12-16T06:16:22.769Z,39.33
2017-12-16T06:18:50.226Z,17.97
2017-12-16T06:21:18.025Z,27.63
2017-12-16T06:23:45.478Z,21.90
2017-12-16T06:26:12.932Z,24.07
2017-12-16T06:28:40.719Z,18.30
2017-12-16T06:31:08.171Z,19.70
2017-12-16T06:33:35.633Z,18.07
2017-12-16T06:36:03.384Z,19.27
2017-12-16T06:38:30.850Z,25.00
2017-12-16T06:40:58.296Z,17.60
2017-12-16T06:43:26.031Z,22.77
2017-12-16T06:45:54.094Z,33.63
2017-12-16T06:48:21.555Z,43.37
2017-12-16T06:50:49.376Z,22.07
2017-12-16T06:53:16.845Z,23.67
2017-12-16T06:55:44.306Z,31.97
2017-12-16T06:58:13.297Z,30.10
2017-12-16T07:00:40.769Z,26.13
2017-12-16T07:03:08.225Z,20.47
2017-12-16T07:05:35.982Z,25.23
2017-12-16T07:08:03.446Z,19.13
2017-12-16T07:10:30.901Z,22.80
2017-12-16T07:12:58.656Z,23.83
2017-12-16T07:15:26.113Z,36.67
2017-12-16T07:17:54.217Z,23.40
2017-12-16T07:20:21.976Z,20.67
2017-12-16T07:22:49.437Z,14.67
2017-12-16T07:25:16.908Z,21.83
2017-12-16T07:27:44.958Z,25.93
2017-12-16T07:30:12.410Z,20.30
2017-12-16T07:32:39.861Z,22.07
2017-12-16T07:35:07.601Z,23.00
2017-12-16T07:37:35.059Z,28.07
2017-12-16T07:40:02.517Z,26.50
2017-12-16T07:42:30.334Z,21.47
2017-12-16T07:44:58.359Z,28.70
2017-12-16T07:47:25.812Z,22.97
2017-12-16T07:49:54.403Z,25.87
2017-12-16T07:52:21.864Z,27.40
2017-12-16T07:54:49.328Z,26.27
2017-12-16T07:57:17.240Z,23.50
2017-12-16T07:59:46.018Z,22.40
2017-12-16T08:02:13.472Z,19.80
2017-12-16T08:04:41.464Z,18.13
2017-12-16T08:07:08.924Z,24.07
2017-12-16T08:09:36.380Z,22.27
2017-12-16T08:12:04.221Z,18.53
2017-12-16T08:14:31.631Z,22.87
2017-12-16T08:16:59.096Z,15.43
2017-12-16T08:19:26.837Z,25.37
2017-12-16T08:21:54.298Z,19.30
2017-12-16T08:24:21.765Z,26.37
2017-12-16T08:26:49.521Z,18.10
2017-12-16T08:29:16.987Z,17.93
2017-12-16T08:31:44.449Z,19.87
2017-12-16T08:34:12.226Z,19.20
2017-12-16T08:36:39.685Z,18.47
2017-12-16T08:39:07.137Z,17.53
2017-12-16T08:41:34.924Z,16.70
2017-12-16T08:44:02.385Z,14.70
2017-12-16T08:46:29.891Z,20.77
2017-12-16T08:48:57.589Z,14.97
2017-12-16T08:51:25.046Z,15.03
2017-12-16T08:53:52.524Z,18.70
2017-12-16T08:56:20.905Z,17.53
2017-12-16T08:58:48.368Z,15.20
2017-12-16T09:01:16.222Z,14.83
2017-12-16T09:10:28.818Z,17.00
2017-12-16T09:12:56.294Z,19.10
2017-12-16T09:15:23.759Z,20.00
2017-12-16T09:17:51.781Z,16.73
2017-12-16T09:20:19.255Z,14.57
2017-12-16T09:22:46.714Z,15.50
2017-12-16T09:25:14.765Z,15.53
2017-12-16T09:27:42.221Z,21.13
2017-12-16T09:30:09.672Z,16.00
2017-12-16T09:32:37.470Z,20.50
2017-12-16T09:35:04.921Z,16.70
2017-12-16T09:37:32.374Z,12.70
2017-12-16T09:40:00.154Z,15.60
2017-12-16T09:42:27.621Z,12.20
2017-12-16T09:44:55.103Z,11.60
2017-12-16T09:47:22.888Z,11.80
2017-12-16T09:49:50.349Z,15.53
2017-12-16T09:52:17.809Z,12.23
2017-12-16T09:54:45.832Z,12.90
2017-12-16T09:57:13.294Z,11.37
2017-12-16T09:59:40.772Z,11.23
2017-12-16T10:02:09.132Z,12.00
2017-12-16T10:04:36.594Z,21.20
2017-12-16T10:07:04.054Z,41.23
2017-12-16T10:09:32.125Z,15.97
2017-12-16T10:11:59.584Z,13.13
2017-12-16T10:14:27.045Z,15.37
2017-12-16T10:16:54.799Z,9.73
2017-12-16T10:19:22.256Z,12.60
2017-12-16T10:21:49.705Z,9.90
2017-12-16T10:24:17.494Z,20.57
2017-12-16T10:26:44.938Z,8.43
2017-12-16T10:29:12.388Z,9.97
2017-12-16T10:31:40.496Z,21.30
2017-12-16T10:34:07.950Z,10.93
2017-12-16T10:36:35.398Z,8.50
2017-12-16T10:39:03.174Z,15.03
2017-12-16T10:41:30.648Z,12.00
2017-12-16T10:43:58.117Z,13.73
2017-12-16T10:46:25.979Z,11.77
2017-12-16T10:48:53.389Z,18.27
2017-12-16T10:51:20.837Z,13.30
2017-12-16T10:53:48.854Z,9.70
2017-12-16T10:56:16.322Z,13.80
2017-12-16T10:58:43.779Z,10.30
2017-12-16T11:01:11.541Z,10.20
2017-12-16T11:03:39.153Z,10.53
2017-12-16T11:06:06.620Z,23.07
2017-12-16T11:08:34.282Z,12.80
2017-12-16T11:11:01.734Z,8.10
2017-12-16T11:13:29.205Z,14.73
2017-12-16T11:15:57.221Z,10.93
2017-12-16T11:18:24.677Z,10.73
2017-12-16T11:20:52.132Z,11.80
2017-12-16T11:23:19.945Z,8.60
2017-12-16T11:25:47.414Z,11.97
2017-12-16T11:28:14.865Z,11.27
2017-12-16T11:30:42.438Z,9.33
2017-12-16T11:33:09.902Z,13.30
2017-12-16T11:35:37.358Z,9.87
2017-12-16T11:38:04.937Z,10.47
2017-12-16T11:40:32.386Z,8.10
2017-12-16T11:42:59.875Z,19.57
2017-12-16T11:45:27.515Z,10.70
2017-12-16T11:47:54.962Z,10.93
2017-12-16T11:50:22.406Z,9.20
2017-12-16T11:52:50.356Z,10.10
2017-12-16T11:55:17.853Z,8.83
2017-12-16T11:57:45.307Z,9.77
2017-12-16T12:00:13.018Z,8.20
2017-12-16T12:02:40.479Z,20.63
2017-12-16T12:05:08.549Z,12.20
2017-12-16T12:07:36.301Z,8.00
2017-12-16T12:10:03.751Z,11.50
2017-12-16T12:12:31.237Z,6.87
2017-12-16T12:14:59.055Z,8.20
2017-12-16T12:17:26.541Z,10.63
2017-12-16T12:19:54.104Z,14.43
2017-12-16T12:22:22.032Z,10.10
2017-12-16T12:24:49.477Z,5.97
2017-12-16T12:27:16.922Z,11.07
2017-12-16T12:29:44.818Z,10.70
2017-12-16T12:32:12.269Z,6.57
2017-12-16T12:34:39.791Z,10.40
2017-12-16T12:37:07.523Z,9.50
2017-12-16T12:39:34.987Z,7.53
2017-12-16T12:42:02.437Z,7.40
2017-12-16T12:44:31.025Z,15.83
2017-12-16T12:46:58.492Z,7.57
2017-12-16T12:49:25.950Z,9.87
2017-12-16T12:51:54.001Z,15.60
2017-12-16T12:54:21.441Z,7.63
2017-12-16T12:56:48.906Z,14.37
2017-12-16T12:59:16.674Z,10.33
2017-12-16T13:01:44.122Z,8.53
2017-12-16T13:04:11.569Z,14.80
2017-12-16T13:06:40.596Z,10.57
2017-12-16T13:09:08.046Z,19.53
2017-12-16T13:11:35.488Z,16.30
2017-12-16T13:14:03.301Z,10.60
2017-12-16T13:16:30.749Z,22.00
2017-12-16T13:18:58.195Z,12.77
2017-12-16T13:21:26.273Z,13.10
2017-12-16T13:23:53.730Z,14.07
2017-12-16T13:26:21.173Z,16.83
2017-12-16T13:28:49.061Z,14.87
2017-12-16T13:31:16.501Z,10.30
2017-12-16T13:33:43.949Z,15.23
2017-12-16T13:36:11.960Z,12.53
2017-12-16T13:38:39.406Z,10.33
2017-12-16T13:41:06.865Z,14.27
2017-12-16T13:43:34.641Z,8.23
2017-12-16T13:46:02.093Z,12.63
2017-12-16T13:48:29.552Z,17.43
2017-12-16T13:50:57.329Z,10.00
2017-12-16T13:53:24.774Z,12.57
2017-12-16T13:55:52.224Z,11.70
2017-12-16T13:58:19.971Z,30.67
2017-12-16T14:00:47.427Z,15.73
2017-12-16T14:03:14.888Z,12.10
2017-12-16T14:05:42.700Z,11.07
2017-12-16T14:08:11.168Z,10.73
2017-12-16T14:10:38.607Z,7.00
2017-12-16T14:13:06.618Z,10.33
2017-12-16T14:15:34.078Z,16.60
2017-12-16T14:18:02.206Z,11.23
2017-12-16T14:20:30.251Z,14.93
2017-12-16T14:22:57.717Z,16.17
2017-12-16T14:25:25.186Z,15.00
2017-12-16T14:27:52.889Z,8.20
2017-12-16T14:30:20.338Z,10.07
2017-12-16T14:32:47.793Z,12.10
2017-12-16T14:35:15.922Z,14.30
2017-12-16T14:37:43.394Z,14.87
2017-12-16T14:40:10.845Z,8.87
2017-12-16T14:42:38.618Z,13.27
2017-12-16T14:45:06.071Z,15.67
2017-12-16T14:47:33.526Z,10.97
2017-12-16T14:50:01.321Z,11.07
2017-12-16T14:52:28.778Z,16.50
2017-12-16T14:54:56.229Z,11.60
2017-12-16T14:57:23.974Z,11.40
2017-12-16T14:59:51.447Z,10.33
2017-12-16T15:02:18.908Z,11.80
2017-12-16T15:04:46.657Z,9.50
2017-12-16T15:07:14.116Z,11.30
2017-12-16T15:09:41.568Z,12.23
2017-12-16T15:12:09.346Z,14.30
2017-12-16T15:14:36.796Z,13.33
2017-12-16T15:17:04.254Z,13.10
2017-12-16T15:19:32.037Z,12.93
2017-12-16T15:21:59.522Z,18.93
2017-12-16T15:24:27.033Z,12.80
2017-12-16T15:26:54.734Z,15.07
2017-12-16T15:29:22.185Z,12.00
2017-12-16T15:31:49.638Z,19.40
2017-12-16T15:34:17.413Z,13.47
2017-12-16T15:36:44.861Z,9.47
2017-12-16T15:39:12.321Z,16.50
2017-12-16T15:41:40.102Z,9.73
2017-12-16T15:44:07.561Z,11.13
2017-12-16T15:46:35.017Z,15.93
2017-12-16T15:49:02.781Z,9.13
2017-12-16T15:51:30.238Z,11.50
2017-12-16T15:53:57.699Z,16.15
2017-12-16T15:56:25.523Z,12.70
2017-12-16T15:58:52.994Z,12.80
2017-12-16T16:01:20.461Z,21.43
2017-12-16T16:03:48.234Z,13.80
2017-12-16T16:06:16.653Z,12.30
2017-12-16T16:08:44.970Z,18.00
2017-12-16T16:11:13.002Z,19.43
2017-12-16T16:13:40.462Z,17.10
2017-12-16T16:16:08.709Z,18.33
2017-12-16T16:18:36.914Z,12.20
2017-12-16T16:21:06.506Z,21.50
2017-12-16T16:23:33.961Z,19.63
2017-12-16T16:26:01.741Z,29.00
2017-12-16T16:28:29.217Z,13.50
2017-12-16T16:30:57.197Z,17.10
2017-12-16T16:33:24.887Z,14.80
2017-12-16T16:35:52.356Z,24.60
2017-12-16T16:38:19.812Z,12.83
2017-12-16T16:40:48.749Z,11.60
2017-12-16T16:43:16.401Z,18.73
2017-12-16T16:45:45.076Z,18.23
2017-12-16T16:48:13.009Z,14.40
2017-12-16T16:50:40.609Z,16.30
2017-12-16T16:53:08.062Z,19.27
2017-12-16T16:55:36.569Z,20.70
2017-12-16T16:58:04.918Z,14.43
2017-12-16T17:00:32.490Z,16.20
2017-12-16T17:03:00.585Z,27.43
2017-12-16T17:05:28.042Z,39.80
2017-12-16T17:07:56.371Z,15.83
2017-12-16T17:10:24.312Z,14.70
2017-12-16T17:12:51.778Z,12.53
2017-12-16T17:15:19.272Z,22.20
2017-12-16T17:17:48.505Z,17.53
2017-12-16T17:20:16.086Z,30.70
2017-12-16T17:22:44.948Z,44.80
2017-12-16T17:25:13.025Z,33.17
2017-12-16T17:27:40.481Z,35.40
2017-12-16T17:30:07.939Z,28.83
2017-12-16T17:32:35.662Z,45.87
2017-12-16T17:35:03.138Z,36.50
2017-12-16T17:37:30.594Z,37.80
2017-12-16T17:39:58.396Z,41.60
2017-12-16T17:42:25.847Z,62.07
2017-12-16T17:44:53.335Z,36.33
2017-12-16T17:47:21.129Z,44.60
2017-12-16T17:49:48.581Z,36.27
2017-12-16T17:52:16.038Z,35.37
2017-12-16T17:54:43.817Z,33.40
2017-12-16T17:57:11.288Z,46.17
2017-12-16T17:59:38.757Z,50.83
2017-12-16T18:02:06.533Z,32.17
2017-12-16T18:04:33.990Z,27.10
2017-12-16T18:07:01.452Z,32.83
2017-12-16T18:09:29.205Z,36.13
2017-12-16T18:11:56.671Z,48.77
2017-12-16T18:14:24.129Z,30.57
2017-12-16T18:16:51.897Z,85.30
2017-12-16T18:19:19.362Z,33.03
2017-12-16T18:21:46.833Z,24.50
2017-12-16T18:24:15.474Z,29.17
2017-12-16T18:26:44.758Z,28.43
2017-12-16T18:29:12.675Z,34.33
2017-12-16T18:31:41.191Z,41.57
2017-12-16T18:34:08.658Z,50.50
2017-12-16T18:36:36.124Z,34.10
2017-12-16T18:39:03.941Z,28.27
2017-12-16T18:41:31.400Z,36.33
2017-12-16T18:43:58.890Z,40.03
2017-12-16T18:46:27.045Z,44.77
2017-12-16T18:48:54.510Z,36.07
2017-12-16T18:51:22.835Z,30.83
2017-12-16T18:53:50.853Z,38.77
2017-12-16T18:56:18.321Z,32.23
2017-12-16T18:58:45.787Z,26.00
2017-12-16T19:01:13.849Z,15.97
2017-12-16T19:03:41.626Z,30.17
2017-12-16T19:06:09.081Z,29.63
2017-12-16T19:08:36.863Z,29.97
2017-12-16T19:11:04.405Z,25.43
2017-12-16T19:13:31.880Z,31.43
2017-12-16T19:15:59.829Z,37.73
2017-12-16T19:18:27.337Z,39.17
2017-12-16T19:20:54.795Z,24.67
2017-12-16T19:23:23.106Z,29.80
2017-12-16T19:25:51.601Z,22.93
2017-12-16T19:28:19.064Z,23.47
2017-12-16T19:30:46.748Z,28.10
2017-12-16T19:33:14.215Z,29.23
2017-12-16T19:35:42.544Z,36.77
2017-12-16T19:38:10.337Z,19.47
2017-12-16T19:40:38.457Z,24.70
2017-12-16T19:43:06.031Z,39.77
2017-12-16T19:45:33.962Z,32.17
2017-12-16T19:48:01.686Z,26.67
2017-12-16T19:50:29.149Z,29.87
2017-12-16T19:52:56.950Z,33.97
2017-12-16T19:55:24.770Z,28.77
2017-12-16T19:57:52.234Z,31.87
2017-12-16T20:00:20.616Z,32.73
2017-12-16T20:02:48.077Z,35.37
2017-12-16T20:05:15.793Z,27.73
2017-12-16T20:07:43.909Z,20.40
2017-12-16T20:10:11.374Z,24.77
2017-12-16T20:12:38.834Z,33.87
2017-12-16T20:15:07.618Z,40.00
2017-12-16T20:17:35.072Z,36.00
2017-12-16T20:20:02.728Z,30.77
2017-12-16T20:22:30.782Z,42.93
2017-12-16T20:24:58.239Z,38.77
2017-12-16T20:27:26.381Z,45.20
2017-12-16T20:29:54.037Z,45.60
2017-12-16T20:32:21.509Z,31.63
2017-12-16T20:34:48.981Z,35.00
2017-12-16T20:37:16.756Z,35.77
2017-12-16T20:39:44.214Z,32.97
2017-12-16T20:42:11.680Z,32.37
2017-12-16T20:44:39.265Z,47.80
2017-12-16T20:47:06.747Z,36.23
2017-12-16T20:49:34.242Z,28.53
2017-12-16T20:52:02.138Z,36.93
2017-12-16T20:54:29.599Z,34.13
2017-12-16T20:56:57.072Z,33.73
2017-12-16T20:59:24.825Z,37.20
2017-12-16T21:01:52.287Z,33.83
2017-12-16T21:04:19.757Z,22.77
2017-12-16T21:06:47.505Z,24.33
2017-12-16T21:09:14.965Z,29.43
2017-12-16T21:11:42.424Z,37.43
2017-12-16T21:14:10.199Z,22.70
2017-12-16T21:16:37.670Z,77.10
2017-12-16T21:19:05.143Z,25.13
2017-12-16T21:21:32.877Z,28.87
2017-12-16T21:24:00.353Z,42.40
2017-12-16T21:26:27.833Z,28.50
2017-12-16T21:28:56.455Z,30.70
2017-12-16T21:31:23.928Z,38.10
2017-12-16T21:33:51.390Z,35.53
2017-12-16T21:36:19.181Z,38.53
2017-12-16T21:38:46.645Z,33.27
2017-12-16T21:41:14.124Z,39.00
2017-12-16T21:43:41.866Z,47.43
2017-12-16T21:46:09.325Z,44.67
2017-12-16T21:48:36.794Z,38.93
2017-12-16T21:51:04.529Z,36.10
2017-12-16T21:53:31.993Z,42.60
2017-12-16T21:55:59.444Z,44.50
2017-12-16T21:58:27.233Z,35.90
2017-12-16T22:00:54.688Z,41.80
2017-12-16T22:03:22.158Z,34.33
2017-12-16T22:05:49.922Z,36.00
2017-12-16T22:08:17.379Z,41.60
2017-12-16T22:10:44.835Z,34.60
2017-12-16T22:13:12.613Z,37.50
2017-12-16T22:15:40.079Z,32.53
2017-12-16T22:18:07.536Z,35.10
2017-12-16T22:20:35.617Z,40.60
2017-12-16T22:23:03.075Z,30.43
2017-12-16T22:25:30.532Z,46.97
2017-12-16T22:27:58.263Z,39.00
2017-12-16T22:30:25.833Z,43.93
2017-12-16T22:32:53.296Z,36.93
2017-12-16T22:35:21.133Z,37.90
2017-12-16T22:37:48.590Z,57.97
2017-12-16T22:40:16.043Z,47.50
2017-12-16T22:42:43.985Z,32.80
2017-12-16T22:45:11.452Z,39.30
2017-12-16T22:47:38.911Z,48.23
2017-12-16T22:50:06.664Z,24.17
2017-12-16T22:52:34.132Z,59.50
2017-12-16T22:55:01.590Z,48.67
2017-12-16T22:57:29.348Z,47.20
2017-12-16T22:59:56.802Z,68.83
2017-12-16T23:02:24.246Z,46.30
2017-12-16T23:04:52.081Z,47.67
2017-12-16T23:07:19.540Z,47.17
2017-12-16T23:09:47.010Z,47.23
2017-12-16T23:12:15.333Z,47.87
2017-12-16T23:14:42.797Z,50.93
2017-12-16T23:17:10.250Z,50.87
2017-12-16T23:19:37.973Z,69.53
2017-12-16T23:22:05.429Z,42.67
2017-12-16T23:24:32.904Z,50.60
2017-12-16T23:27:00.714Z,50.17
2017-12-16T23:29:28.172Z,46.93
2017-12-16T23:31:56.014Z,42.33
2017-12-16T23:34:24.018Z,56.47
2017-12-16T23:36:51.476Z,57.27
2017-12-16T23:39:18.942Z,40.70
2017-12-16T23:41:47.010Z,47.37
2017-12-16T23:44:14.471Z,34.47
2017-12-16T23:46:41.927Z,47.37
2017-12-16T23:49:09.695Z,48.00
2017-12-16T23:51:37.163Z,39.33
2017-12-16T23:54:04.621Z,43.07
2017-12-16T23:56:32.680Z,38.10
2017-12-16T23:59:00.133Z,37.70
